地図

経路データ

SID SEASON NUMBER BASIN SUBBASIN NAME ISO_TIME NATURE LAT LON WMO_WIND WMO_PRES WMO_AGENCY TRACK_TYPE DIST2LAND LANDFALL IFLAG USA_AGENCY USA_ATCF_ID USA_LAT USA_LON USA_RECORD USA_STATUS USA_WIND USA_PRES USA_SSHS USA_R34_NE USA_R34_SE USA_R34_SW USA_R34_NW USA_R50_NE USA_R50_SE USA_R50_SW USA_R50_NW USA_R64_NE USA_R64_SE USA_R64_SW USA_R64_NW USA_POCI USA_ROCI USA_RMW USA_EYE TOKYO_LAT TOKYO_LON TOKYO_GRADE TOKYO_WIND TOKYO_PRES TOKYO_R50_DIR TOKYO_R50_LONG TOKYO_R50_SHORT TOKYO_R30_DIR TOKYO_R30_LONG TOKYO_R30_SHORT TOKYO_LAND CMA_LAT CMA_LON CMA_CAT CMA_WIND CMA_PRES HKO_LAT HKO_LON HKO_CAT HKO_WIND HKO_PRES NEWDELHI_LAT NEWDELHI_LON NEWDELHI_GRADE NEWDELHI_WIND NEWDELHI_PRES NEWDELHI_CI NEWDELHI_DP NEWDELHI_POCI REUNION_LAT REUNION_LON REUNION_TYPE REUNION_WIND REUNION_PRES REUNION_TNUM REUNION_CI REUNION_RMW REUNION_R34_NE REUNION_R34_SE REUNION_R34_SW REUNION_R34_NW REUNION_R50_NE REUNION_R50_SE REUNION_R50_SW REUNION_R50_NW REUNION_R64_NE REUNION_R64_SE REUNION_R64_SW REUNION_R64_NW BOM_LAT BOM_LON BOM_TYPE BOM_WIND BOM_PRES BOM_TNUM BOM_CI BOM_RMW BOM_R34_NE BOM_R34_SE BOM_R34_SW BOM_R34_NW BOM_R50_NE BOM_R50_SE BOM_R50_SW BOM_R50_NW BOM_R64_NE BOM_R64_SE BOM_R64_SW BOM_R64_NW BOM_ROCI BOM_POCI BOM_EYE BOM_POS_METHOD BOM_PRES_METHOD NADI_LAT NADI_LON NADI_CAT NADI_WIND NADI_PRES WELLINGTON_LAT WELLINGTON_LON WELLINGTON_WIND WELLINGTON_PRES DS824_LAT DS824_LON DS824_STAGE DS824_WIND DS824_PRES TD9636_LAT TD9636_LON TD9636_STAGE TD9636_WIND TD9636_PRES TD9635_LAT TD9635_LON TD9635_WIND TD9635_PRES TD9635_ROCI NEUMANN_LAT NEUMANN_LON NEUMANN_CLASS NEUMANN_WIND NEUMANN_PRES MLC_LAT MLC_LON MLC_CLASS MLC_WIND MLC_PRES USA_GUST BOM_GUST BOM_GUST_PER REUNION_GUST REUNION_GUST_PER USA_SEAHGT USA_SEARAD_NE USA_SEARAD_SE USA_SEARAD_SW USA_SEARAD_NW STORM_SPEED STORM_DIR
1885241N25267 1885 38 NA GM NOT_NAMED 1885-08-29 00:00:00 TS 25.0000 -93.4000 40 hurdat_atl main 387 366 O_____________ hurdat_atl AL031885 25.0000 -93.4000 TS 40 0 8 341
1885241N25267 1885 38 NA GM NOT_NAMED 1885-08-29 03:00:00 TS 25.3726 -93.5397 main 366 350 P_____________ AL031885 25.3726 -93.5397 TS 40 0 8 347
1885241N25267 1885 38 NA GM NOT_NAMED 1885-08-29 06:00:00 TS 25.8000 -93.6000 40 hurdat_atl main 350 344 O_____________ hurdat_atl AL031885 25.8000 -93.6000 TS 40 0 9 0
1885241N25267 1885 38 NA GM NOT_NAMED 1885-08-29 09:00:00 TS 26.3074 -93.5176 main 344 300 P_____________ AL031885 26.3074 -93.5176 TS 40 0 12 25
1885241N25267 1885 38 NA GM NOT_NAMED 1885-08-29 12:00:00 TS 26.8889 -93.0222 40 hurdat_atl main 298 246 O____________O hurdat_atl AL031885 26.8000 -93.3000 TS 40 0 27.6000 -90.8000 TS 35 14 43
1885241N25267 1885 38 NA GM NOT_NAMED 1885-08-29 15:00:00 TS 27.2940 -92.4719 main 246 193 P____________P AL031885 27.1799 -93.0023 TS 40 0 27.7503 -90.3503 TS 37 13 55
1885241N25267 1885 38 NA GM NOT_NAMED 1885-08-29 18:00:00 TS 27.6091 -91.8636 40 hurdat_atl main 193 139 O____________O hurdat_atl AL031885 27.5000 -92.6000 TS 40 0 27.9000 -89.9000 TS 40 12 61
1885241N25267 1885 38 NA GM NOT_NAMED 1885-08-29 21:00:00 TS 27.8881 -91.2464 main 137 111 P____________P AL031885 27.8073 -92.1446 TS 45 0 28.0499 -89.4499 TS 42 11 62
1885241N25267 1885 38 NA GM NOT_NAMED 1885-08-30 00:00:00 TS 28.1333 -90.7333 50 hurdat_atl main 112 78 O____________O hurdat_atl AL031885 28.1000 -91.6000 TS 50 0 28.2000 -89.0000 TS 45 11 62
1885241N25267 1885 38 NA GM NOT_NAMED 1885-08-30 03:00:00 TS 28.3883 -90.1649 main 78 59 P____________P AL031885 28.4075 -90.9725 TS 50 0 28.3499 -88.5499 TS 45 11 64
1885241N25267 1885 38 NA GM NOT_NAMED 1885-08-30 06:00:00 TS 28.6333 -89.5667 50 hurdat_atl main 59 22 O____________O hurdat_atl AL031885 28.7000 -90.3000 TS 50 0 28.5000 -88.1000 TS 45 11 65
1885241N25267 1885 38 NA GM NOT_NAMED 1885-08-30 09:00:00 TS 28.8517 -89.0127 main 14 14 P____________P AL031885 28.9564 -89.6942 TS 50 0 28.6423 -87.6498 TS 45 11 67
1885241N25267 1885 38 NA GM NOT_NAMED 1885-08-30 12:00:00 TS 29.0667 -88.4000 50 hurdat_atl main 58 58 O____________O hurdat_atl AL031885 29.2000 -89.0000 TS 50 0 28.8000 -87.2000 TS 45 13 70
1885241N25267 1885 38 NA GM NOT_NAMED 1885-08-30 15:00:00 TS 29.2989 -87.6339 main 107 89 P____________P AL031885 29.4522 -88.0758 TS 50 0 28.9924 -86.7499 TS 45 14 71
1885241N25267 1885 38 NA GM NOT_NAMED 1885-08-30 18:00:00 TS 29.5333 -86.8333 50 hurdat_atl main 97 62 O____________O hurdat_atl AL031885 29.7000 -87.1000 TS 50 0 29.2000 -86.3000 TS 45 14 72
1885241N25267 1885 38 NA GM NOT_NAMED 1885-08-30 21:00:00 TS 29.7356 -86.1318 main 58 22 P____________P AL031885 29.9261 -86.2657 TS 50 0 29.3547 -85.8640 TS 45 13 70
1885241N25267 1885 38 NA GM NOT_NAMED 1885-08-30 23:00:00 TS 29.8996 -85.6536 50 hurdat_atl main 22 0 O____________P hurdat_atl AL031885 30.1000 -85.7000 L TS 50 0 29.4989 -85.5608 TS 45 14 67
1885241N25267 1885 38 NA NA NOT_NAMED 1885-08-31 00:00:00 TS 30.0000 -85.4000 50 hurdat_atl main 0 0 O____________O hurdat_atl AL031885 30.2000 -85.4000 TS 50 0 29.6000 -85.4000 TS 45 16 64
1885241N25267 1885 38 NA NA NOT_NAMED 1885-08-31 03:00:00 TS 30.3606 -84.5741 main 0 0 P____________P AL031885 30.5060 -84.4210 TS 45 0 30.0698 -84.8803 TS 42 16 63
1885241N25267 1885 38 NA NA NOT_NAMED 1885-08-31 06:00:00 TS 30.7333 -83.7000 40 hurdat_atl main 0 0 O____________O hurdat_atl AL031885 30.8000 -83.4000 TS 40 0 30.6000 -84.3000 TS 40 16 66
1885241N25267 1885 38 NA NA NOT_NAMED 1885-08-31 09:00:00 TS 31.0058 -82.9267 main 0 0 P____________P AL031885 31.0407 -82.4783 TS 40 0 30.9360 -83.8235 TS 37 16 68
1885241N25267 1885 38 NA NA NOT_NAMED 1885-08-31 12:00:00 TS 31.3333 -82.0000 40 hurdat_atl main 0 0 O____________O hurdat_atl AL031885 31.3000 -81.5000 TS 40 0 31.4000 -83.0000 TS 35 20 66
1885241N25267 1885 38 NA NA NOT_NAMED 1885-08-31 15:00:00 TS 31.8220 -80.7299 main 21 18 P____________P AL031885 31.6307 -80.3553 TS 40 0 32.2046 -81.4789 TS 32 26 66
1885241N25267 1885 38 NA NA NOT_NAMED 1885-08-31 18:00:00 TS 32.4000 -79.2333 40 hurdat_atl main 69 O____________O hurdat_atl AL031885 32.0000 -79.1000 TS 40 0 33.2000 -79.5000 TD 30 28 65

IBTrACS Databaseについて

本データベースは、米国NOAAが公開する1842年以降の世界の熱帯低気圧のベストトラックデータアーカイブInternational Best Track Archive for Climate Stewardship (IBTrACS)を、ウェブで閲覧しやすい形式に変換したものです。

最終更新日:2021-12-06